Terminal Aerodrome Forecast
Issued by NWS

Home | Current Version | Previous Version | Graphics & Text | Print | Product List | Glossary On
Versions: 1 2 3 4 5 6 7 8 9 10 11 12 13 14 15 16 17 18 19 20 21 22 23 24 25 26 27 28 29 30 31 32 33 34 35 36 37 38 39 40 41 42 43 44 45 46
000
FTUS43 KGRB 221736
TAFRHI
TAF
KRHI 221736Z 2218/2318 29003KT 2SM BR OVC003
      TEMPO 2218/2222 1/2SM FG OVC002
     FM222200 31002KT 3SM BR OVC003
     FM230100 VRB03KT 1/2SM -DZ FG OVC003
     FM230400 VRB03KT 1/4SM FG OVC002
     FM231500 32004KT 1SM BR OVC003
     FM231700 33005KT 3SM BR OVC006=

USA.gov is the U.S. government's official web portal to all federal, state and local government web resources and services.